Time;durP1;ratioP1;P1;durP2;ratioP2;P2;SDS_P1;SDS_P2;PMS_P1;PMS_P2;Temp;Humidity;BMP_temperature;BMP_pressure;BME280_temperature;BME280_humidity;BME280_pressure;Samples;Min_cycle;Max_cycle;Signal;HPM_P1;HPM_P2
2023/06/17 00:00:06;;;;;;;12.30;11.30;;;17.20;99.90;;;16.79;75.47;100901.41;5052994;28;20224;-75
2023/06/17 00:02:38;;;;;;;11.83;10.63;;;17.20;99.90;;;16.74;74.91;100896.63;5052877;28;20225;-75
2023/06/17 00:05:12;;;;;;;14.67;11.30;;;17.10;99.90;;;16.73;75.24;100893.06;5052953;28;20597;-75
2023/06/17 00:07:43;;;;;;;12.50;11.30;;;17.10;99.90;;;16.75;74.78;100894.75;5053685;28;20621;-75
2023/06/17 00:10:17;;;;;;;11.53;10.43;;;17.10;99.90;;;16.77;75.15;100887.25;5053176;28;20194;-75
2023/06/17 00:12:49;;;;;;;11.87;10.70;;;17.10;99.90;;;16.77;74.41;100888.09;5053177;28;20285;-75
2023/06/17 00:15:22;;;;;;;12.17;11.07;;;17.20;99.90;;;16.75;75.10;100884.75;5053101;28;20221;-75
2023/06/17 00:17:56;;;;;;;11.20;10.10;;;17.10;99.90;;;16.73;75.54;100882.25;5053268;28;20201;-75
2023/06/17 00:20:29;;;;;;;12.43;11.23;;;17.10;99.90;;;16.69;75.17;100880.97;5053196;28;20198;-75
2023/06/17 00:23:01;;;;;;;12.33;11.33;;;17.20;99.90;;;16.68;75.55;100884.69;5053088;28;20636;-75
2023/06/17 00:25:34;;;;;;;12.20;10.97;;;17.10;99.90;;;16.67;75.71;100882.22;5052703;28;20624;-75
2023/06/17 00:28:06;;;;;;;13.10;11.90;;;17.00;99.90;;;16.65;76.30;100884.25;5053104;28;20195;-75
2023/06/17 00:30:39;;;;;;;13.23;11.60;;;17.00;99.90;;;16.59;75.91;100877.78;5053051;28;20285;-75
2023/06/17 00:33:11;;;;;;;13.47;12.17;;;17.00;99.90;;;16.62;76.39;100880.09;5052668;28;20789;-75
2023/06/17 00:35:43;;;;;;;13.23;12.00;;;17.00;99.90;;;16.62;76.47;100880.09;5052939;28;20187;-75
2023/06/17 00:38:15;;;;;;;13.90;12.60;;;17.00;99.90;;;16.60;76.17;100876.75;5053028;28;20281;-75
2023/06/17 00:40:48;;;;;;;14.03;12.73;;;17.10;99.90;;;16.58;76.29;100872.56;5052807;28;20210;-75
2023/06/17 00:43:20;;;;;;;14.10;12.63;;;16.90;99.90;;;16.56;76.27;100878.16;5052501;28;20226;-75
2023/06/17 00:45:51;;;;;;;13.83;12.43;;;16.90;99.90;;;16.55;76.83;100876.50;5052936;28;20274;-75
2023/06/17 00:48:23;;;;;;;14.67;13.07;;;16.90;99.90;;;16.51;76.83;100877.03;5052889;28;20281;-75
2023/06/17 00:51:01;;;;;;;16.43;12.60;;;16.80;99.90;;;16.44;77.12;100885.09;5052856;28;20277;-75
2023/06/17 00:53:34;;;;;;;13.80;12.50;;;16.80;99.90;;;16.40;77.09;100883.84;5053112;28;20237;-75
2023/06/17 00:56:08;;;;;;;14.00;12.60;;;16.70;99.90;;;16.41;76.81;100879.25;5052800;28;20254;-75
2023/06/17 00:58:40;;;;;;;13.80;12.53;;;16.70;99.90;;;16.37;77.77;100878.78;5052865;28;20277;-75
2023/06/17 01:01:13;;;;;;;13.20;12.00;;;16.70;99.90;;;16.36;77.10;100877.13;5056532;28;20225;-75
2023/06/17 01:03:45;;;;;;;12.90;11.67;;;16.80;99.90;;;16.34;77.52;100873.78;5056480;28;20222;-75
2023/06/17 01:06:26;;;;;;;12.97;11.70;;;16.60;99.90;;;16.28;76.73;100874.56;5056464;28;20183;-75
2023/06/17 01:09:06;;;;;;;13.77;12.53;;;16.60;99.90;;;16.27;77.32;100880.19;5056456;28;20198;-75
2023/06/17 01:11:42;;;;;;;13.73;12.43;;;16.60;99.90;;;16.26;77.62;100873.09;5056130;28;20285;-75
2023/06/17 01:14:16;;;;;;;14.20;13.00;;;16.60;99.90;;;16.20;77.76;100871.97;5056339;28;20200;-74
2023/06/17 01:16:54;;;;;;;15.43;13.87;;;16.60;99.90;;;16.20;77.16;100874.69;5056461;28;20214;-75
2023/06/17 01:19:30;;;;;;;15.43;14.07;;;16.60;99.90;;;16.16;78.06;100876.94;5056008;28;20644;-75
2023/06/17 01:22:06;;;;;;;15.57;13.60;;;16.50;99.90;;;16.12;77.97;100872.13;5056192;28;20247;-75
2023/06/17 01:24:40;;;;;;;15.77;14.33;;;16.50;99.90;;;16.10;77.78;100872.31;5056081;28;20190;-75
2023/06/17 01:27:11;;;;;;;14.70;13.27;;;16.50;99.90;;;16.11;78.16;100873.16;5056070;28;20268;-75
2023/06/17 01:29:46;;;;;;;15.60;13.87;;;16.50;99.90;;;16.14;78.82;100870.91;5056059;28;20201;-75
2023/06/17 01:32:19;;;;;;;16.13;14.40;;;16.50;99.90;;;16.21;78.71;100863.69;5055569;28;20789;-75
2023/06/17 01:35:00;;;;;;;14.60;13.13;;;16.60;99.90;;;16.15;78.25;100866.34;5055860;28;20190;-73
2023/06/17 01:37:41;;;;;;;16.40;14.50;;;16.60;99.90;;;16.07;78.33;100858.34;5055825;28;20206;-74
2023/06/17 01:40:21;;;;;;;16.03;14.33;;;16.40;99.90;;;16.05;77.91;100861.25;5055720;28;20297;-74
2023/06/17 01:42:59;;;;;;;15.97;14.03;;;16.40;99.90;;;16.04;77.50;100864.16;5055657;28;20261;-75
2023/06/17 01:45:31;;;;;;;14.63;13.17;;;16.40;99.90;;;15.99;77.60;100861.19;5055404;28;20208;-75
2023/06/17 01:48:03;;;;;;;15.07;13.57;;;16.30;99.90;;;15.90;78.36;100862.34;5055642;28;20198;-75
2023/06/17 01:50:35;;;;;;;16.10;14.20;;;16.10;99.90;;;15.90;77.75;100857.78;5055634;28;20202;-74
2023/06/17 01:53:07;;;;;;;16.70;14.27;;;16.30;99.90;;;15.91;78.25;100859.47;5055507;28;20230;-75
2023/06/17 01:55:40;;;;;;;16.10;14.53;;;16.20;99.90;;;15.93;78.59;100861.94;5055503;28;20202;-75
2023/06/17 01:58:12;;;;;;;16.50;14.80;;;16.30;99.90;;;15.87;78.86;100857.31;5055496;28;20606;-75
2023/06/17 02:00:44;;;;;;;17.10;15.40;;;16.20;99.90;;;15.85;78.99;100862.09;5055428;28;20190;-75
2023/06/17 02:03:17;;;;;;;16.73;15.03;;;16.20;99.90;;;15.83;78.60;100859.56;5055387;28;20312;-75
2023/06/17 02:05:49;;;;;;;17.03;15.53;;;16.30;99.90;;;15.87;78.11;100863.56;5055350;28;20194;-75
2023/06/17 02:08:22;;;;;;;17.20;15.50;;;16.40;99.90;;;15.86;78.43;100861.03;5055278;28;20281;-75
2023/06/17 02:10:55;;;;;;;15.57;14.17;;;16.30;99.90;;;15.78;77.85;100859.31;5054267;28;20712;-75
2023/06/17 02:13:27;;;;;;;18.03;16.17;;;16.20;99.90;;;15.75;78.24;100861.56;5055185;28;20226;-75
2023/06/17 02:15:59;;;;;;;17.33;15.73;;;16.10;99.90;;;15.70;77.51;100857.56;5055397;28;20276;-75
2023/06/17 02:18:32;;;;;;;17.63;16.03;;;16.20;99.90;;;15.75;78.68;100856.16;5055037;28;20301;-75
2023/06/17 02:21:05;;;;;;;20.00;16.03;;;16.10;99.90;;;15.66;78.75;100864.38;5055554;28;20193;-75
2023/06/17 02:23:36;;;;;;;18.77;16.97;;;16.00;99.90;;;15.67;78.68;100859.81;5055060;28;20284;-75
2023/06/17 02:26:10;;;;;;;18.50;16.60;;;16.00;99.90;;;15.71;79.42;100864.66;5054854;28;20739;-75
2023/06/17 02:28:42;;;;;;;16.67;15.17;;;16.10;99.90;;;15.72;78.45;100852.81;5054924;28;20214;-75
2023/06/17 02:31:14;;;;;;;16.77;15.17;;;16.10;99.90;;;15.69;77.84;100850.50;5054792;28;20194;-74
2023/06/17 02:33:46;;;;;;;17.67;15.97;;;16.10;99.90;;;15.58;77.71;100842.88;5054759;28;20226;-75
2023/06/17 02:36:19;;;;;;;17.17;15.47;;;16.00;99.90;;;15.55;77.48;100851.34;5054773;28;20190;-75
2023/06/17 02:38:53;;;;;;;16.60;15.00;;;15.90;99.90;;;15.44;78.47;100846.44;5054276;28;20245;-75
2023/06/17 02:41:27;;;;;;;19.13;17.13;;;15.80;99.90;;;15.51;78.60;100842.00;5054428;28;20295;-75
2023/06/17 02:43:59;;;;;;;18.67;16.57;;;15.90;99.90;;;15.46;78.85;100844.38;5054228;28;20727;-74
2023/06/17 02:46:31;;;;;;;19.67;17.63;;;15.90;99.90;;;15.52;80.56;100843.66;5054853;28;20232;-74
2023/06/17 02:49:03;;;;;;;16.77;15.17;;;15.50;99.90;;;15.45;77.88;100829.22;5054187;28;20186;-74
2023/06/17 02:51:35;;;;;;;19.07;17.07;;;15.90;99.90;;;15.47;79.09;100839.81;5054455;28;20229;-74
2023/06/17 02:54:06;;;;;;;18.63;16.93;;;15.90;99.90;;;15.39;78.87;100845.31;5054512;28;20234;-74
2023/06/17 02:56:40;;;;;;;19.33;17.23;;;15.80;99.90;;;15.38;79.52;100847.19;5054412;28;20286;-74
2023/06/17 02:59:12;;;;;;;19.57;17.57;;;15.80;99.90;;;15.32;80.07;100837.16;5054133;28;20641;-74
2023/06/17 03:01:44;;;;;;;20.13;18.23;;;15.70;99.90;;;15.32;80.38;100844.41;5054036;28;20640;-74
2023/06/17 03:04:20;;;;;;;21.97;19.73;;;15.70;99.90;;;15.34;81.44;100843.22;5054240;28;20209;-74
2023/06/17 03:06:53;;;;;;;20.30;18.13;;;15.70;99.90;;;15.38;80.43;100852.56;5054219;28;20191;-74
2023/06/17 03:09:26;;;;;;;20.47;18.53;;;15.90;99.90;;;15.30;80.32;100849.16;5054213;28;20273;-74
2023/06/17 03:12:02;;;;;;;20.27;17.83;;;15.70;99.90;;;15.26;81.04;100847.84;5053954;28;20187;-74
2023/06/17 03:14:34;;;;;;;21.47;19.27;;;15.70;99.90;;;15.30;81.16;100852.69;5054112;28;20194;-74
2023/06/17 03:17:06;;;;;;;21.40;19.30;;;15.80;99.90;;;15.33;80.68;100856.88;5053881;28;20281;-74
2023/06/17 03:19:38;;;;;;;22.77;20.40;;;15.80;99.90;;;15.29;81.51;100864.50;5054051;28;20197;-74
2023/06/17 03:22:10;;;;;;;22.13;20.00;;;15.70;99.90;;;15.34;82.33;100862.09;5053775;28;20723;-74
2023/06/17 03:24:42;;;;;;;24.20;21.77;;;15.80;99.90;;;15.33;82.75;100860.41;5053637;28;20281;-74
2023/06/17 03:27:15;;;;;;;21.83;19.73;;;15.90;99.90;;;15.34;82.30;100863.94;5053941;28;20186;-74
2023/06/17 03:29:48;;;;;;;23.57;21.17;;;15.80;99.90;;;15.33;82.83;100863.09;5053613;28;20191;-74
2023/06/17 03:32:20;;;;;;;25.47;23.00;;;15.40;99.90;;;15.34;82.73;100867.50;5053689;28;20265;-74
2023/06/17 03:34:53;;;;;;;25.93;23.53;;;16.00;99.90;;;15.34;83.60;100848.59;5053722;28;20286;-74
2023/06/17 03:37:25;;;;;;;24.90;22.43;;;15.80;99.90;;;15.37;83.85;100850.09;5053360;28;20301;-74
2023/06/17 03:39:57;;;;;;;25.47;22.83;;;15.80;99.90;;;15.38;83.81;100851.72;5053744;28;20190;-74
2023/06/17 03:42:30;;;;;;;26.70;23.93;;;15.90;99.90;;;15.37;84.11;100845.53;5053560;28;20787;-75
2023/06/17 03:45:02;;;;;;;24.87;22.23;;;15.90;99.90;;;15.38;83.99;100849.88;5054091;28;20195;-74
2023/06/17 03:47:34;;;;;;;24.17;21.97;;;15.90;99.90;;;15.39;83.69;100848.03;5053286;28;20197;-74
2023/06/17 03:50:08;;;;;;;22.87;20.77;;;16.20;99.90;;;15.41;83.94;100849.50;5053549;28;20197;-74
2023/06/17 03:52:40;;;;;;;22.80;20.67;;;16.00;99.90;;;15.34;83.56;100851.31;5053519;28;20238;-74
2023/06/17 03:55:13;;;;;;;22.67;20.43;;;15.90;99.90;;;15.31;83.41;100846.25;5053149;28;20723;-74
2023/06/17 03:57:45;;;;;;;22.40;20.20;;;15.80;99.90;;;15.33;82.93;100846.91;5053412;28;20214;-74
2023/06/17 04:00:17;;;;;;;19.50;17.70;;;15.80;99.90;;;15.36;82.21;100846.53;5053463;28;20194;-74
2023/06/17 04:02:50;;;;;;;19.87;17.97;;;15.90;99.90;;;15.36;81.42;100849.25;5053768;28;20230;-74
2023/06/17 04:05:31;;;;;;;18.40;16.60;;;15.80;99.90;;;15.35;81.72;100847.56;5053025;28;20277;-74
2023/06/17 04:08:03;;;;;;;21.73;17.90;;;15.80;99.90;;;15.36;81.58;100851.94;5053413;28;20186;-74
2023/06/17 04:10:36;;;;;;;17.57;15.90;;;15.80;99.90;;;15.27;80.74;100850.38;5053303;28;20193;-74
2023/06/17 04:13:09;;;;;;;17.20;15.40;;;15.80;99.90;;;15.23;80.41;100849.91;5053266;28;20226;-74
2023/06/17 04:15:41;;;;;;;18.87;17.07;;;15.80;99.90;;;15.26;81.10;100854.09;5053285;28;20297;-74
2023/06/17 04:18:14;;;;;;;19.23;16.50;;;15.80;99.90;;;15.24;81.17;100850.72;5052962;28;20742;-74
2023/06/17 04:20:45;;;;;;;19.20;16.50;;;15.70;99.90;;;15.24;80.75;100856.13;5053277;28;20198;-74
2023/06/17 04:23:17;;;;;;;18.87;16.97;;;15.70;99.90;;;15.25;80.70;100852.41;5053179;28;20226;-74
2023/06/17 04:25:50;;;;;;;19.43;17.53;;;15.80;99.90;;;15.28;80.69;100854.72;5053206;28;20313;-74
2023/06/17 04:28:24;;;;;;;19.47;17.50;;;15.80;99.90;;;15.31;80.53;100856.25;5052938;28;20634;-74
2023/06/17 04:30:59;;;;;;;19.53;17.53;;;15.80;99.90;;;15.32;80.29;100857.88;5053081;28;20273;-74
2023/06/17 04:33:31;;;;;;;19.00;16.53;;;15.90;99.90;;;15.28;80.14;100860.13;5052927;28;20225;-74
2023/06/17 04:36:07;;;;;;;18.57;16.67;;;15.80;99.90;;;15.21;80.16;100856.50;5056913;28;20711;-74
2023/06/17 04:38:40;;;;;;;18.10;16.40;;;15.80;99.90;;;15.25;79.67;100857.81;5057013;28;20667;-74
2023/06/17 04:41:12;;;;;;;18.77;16.77;;;15.70;99.90;;;15.26;80.06;100870.28;5056959;28;20214;-74
2023/06/17 04:43:48;;;;;;;18.83;16.90;;;15.80;99.90;;;15.30;80.55;100863.50;5056628;28;20233;-74
2023/06/17 04:46:20;;;;;;;18.80;16.20;;;15.90;99.90;;;15.34;79.95;100864.78;5057068;28;20201;-74
2023/06/17 04:48:53;;;;;;;16.77;15.17;;;15.90;99.90;;;15.36;79.79;100865.44;5057054;28;20270;-74
2023/06/17 04:51:25;;;;;;;18.80;16.30;;;15.90;99.90;;;15.38;79.82;100863.38;5056883;28;20194;-74
2023/06/17 04:53:57;;;;;;;18.50;16.50;;;15.90;99.90;;;15.31;80.25;100861.63;5056478;28;20225;-74
2023/06/17 04:56:29;;;;;;;17.83;16.03;;;15.80;99.90;;;15.35;79.79;100858.34;5056742;28;20194;-74
2023/06/17 04:59:02;;;;;;;19.30;17.43;;;15.90;99.90;;;15.34;80.43;100862.09;5056668;28;20249;-74
2023/06/17 05:01:34;;;;;;;18.43;16.60;;;15.90;99.90;;;15.29;80.00;100864.50;5056607;28;20198;-74
2023/06/17 05:04:07;;;;;;;17.57;15.90;;;16.40;99.90;;;15.28;80.06;100862.81;5056321;28;20232;-74
2023/06/17 05:06:39;;;;;;;18.50;16.60;;;15.80;99.90;;;15.34;80.08;100856.69;5056148;28;20186;-74
2023/06/17 05:09:11;;;;;;;18.70;16.90;;;15.90;99.90;;;15.28;79.96;100857.41;5056458;28;20187;-74
2023/06/17 05:11:43;;;;;;;17.23;15.47;;;15.80;99.90;;;15.33;79.94;100857.72;5056448;28;20277;-74
2023/06/17 05:14:16;;;;;;;19.83;16.63;;;15.90;99.90;;;15.21;80.50;100856.50;5056850;28;20222;-74
2023/06/17 05:16:48;;;;;;;18.87;16.80;;;15.70;99.90;;;15.28;80.67;100857.41;5056393;28;20252;-74
2023/06/17 05:19:20;;;;;;;19.33;17.43;;;15.80;99.90;;;15.33;80.68;100857.72;5056033;28;20214;-74
2023/06/17 05:21:52;;;;;;;21.43;18.83;;;15.90;99.90;;;15.28;81.56;100857.41;5056127;28;20198;-74
2023/06/17 05:24:23;;;;;;;21.27;19.00;;;15.80;99.90;;;15.35;81.62;100857.50;5056210;28;20226;-74
2023/06/17 05:26:55;;;;;;;23.47;19.73;;;15.90;99.90;;;15.37;81.66;100861.72;5056428;28;20205;-74
2023/06/17 05:29:29;;;;;;;24.77;20.83;;;15.90;99.90;;;15.36;82.66;100853.78;5056106;28;20269;-74
2023/06/17 05:32:01;;;;;;;27.33;21.93;;;15.90;99.90;;;15.40;82.59;100871.28;5055788;28;20194;-65
2023/06/17 05:34:32;;;;;;;24.47;21.83;;;16.00;99.90;;;15.42;82.38;100863.81;5055859;28;20194;-69
2023/06/17 05:37:04;;;;;;;24.80;22.10;;;16.00;99.90;;;15.39;82.84;100870.44;5055933;28;20194;-70
2023/06/17 05:39:36;;;;;;;26.67;22.00;;;15.90;99.90;;;15.42;82.95;100864.66;5055459;28;20791;-69
2023/06/17 05:42:08;;;;;;;25.67;21.13;;;16.00;99.90;;;15.47;83.15;100864.09;5055484;28;20324;-70
2023/06/17 05:44:41;;;;;;;26.10;22.33;;;16.00;99.90;;;15.47;82.99;100872.19;5055527;28;20640;-70
2023/06/17 05:47:13;;;;;;;28.20;23.03;;;16.00;99.90;;;15.42;83.44;100864.66;5054543;28;20281;-70
2023/06/17 05:49:45;;;;;;;27.03;21.70;;;16.00;99.90;;;15.44;82.95;100873.44;5055656;28;20286;-70
2023/06/17 05:52:17;;;;;;;30.47;22.87;;;16.00;99.90;;;15.42;82.99;100874.63;5055508;28;20320;-70
2023/06/17 05:54:49;;;;;;;27.63;22.90;;;16.00;99.90;;;15.44;83.20;100873.44;5055563;28;20278;-70
2023/06/17 05:57:21;;;;;;;25.90;23.07;;;16.00;99.90;;;15.35;83.77;100879.94;5055223;28;20568;-70
2023/06/17 05:59:55;;;;;;;26.73;23.17;;;15.90;99.90;;;15.39;83.63;100875.84;5055087;28;20721;-70
2023/06/17 06:02:26;;;;;;;28.00;22.83;;;16.00;99.90;;;15.45;83.22;100879.63;5055655;28;20261;-70
2023/06/17 06:04:58;;;;;;;27.83;23.33;;;16.00;99.90;;;15.49;83.55;100889.91;5055402;28;20195;-70
2023/06/17 06:07:30;;;;;;;29.10;23.73;;;16.10;99.90;;;15.53;83.37;100888.50;5055341;28;20190;-70
2023/06/17 06:10:03;;;;;;;27.93;23.83;;;16.10;99.90;;;15.57;82.97;100892.50;5056027;28;20190;-70
2023/06/17 06:12:35;;;;;;;32.13;25.47;;;16.10;99.90;;;15.55;83.49;100893.69;5054832;28;20765;-70
2023/06/17 06:15:10;;;;;;;27.73;23.10;;;16.00;99.90;;;15.59;83.17;100893.13;5054854;28;20698;-70
2023/06/17 06:17:42;;;;;;;32.33;25.80;;;16.20;99.90;;;15.52;83.24;100897.63;5055186;28;20194;-70
2023/06/17 06:20:15;;;;;;;33.20;25.53;;;16.10;99.90;;;15.46;83.86;100897.50;5054759;28;20679;-70
2023/06/17 06:22:47;;;;;;;34.33;25.87;;;16.00;99.90;;;15.50;83.57;100896.97;5055055;28;20254;-70
2023/06/17 06:25:19;;;;;;;32.60;25.50;;;16.10;99.90;;;15.54;83.23;100894.75;5055057;28;20572;-70
2023/06/17 06:27:51;;;;;;;36.37;27.10;;;16.10;99.90;;;15.57;82.80;100894.38;5054943;28;20218;-70
2023/06/17 06:30:25;;;;;;;37.80;29.20;;;16.10;99.90;;;15.49;82.61;100891.75;5054632;28;20666;-70
2023/06/17 06:32:57;;;;;;;39.60;29.20;;;16.10;99.90;;;15.35;82.71;100890.72;5054773;28;20317;-70
2023/06/17 06:35:29;;;;;;;40.37;28.80;;;16.00;99.90;;;15.41;82.77;100892.66;5054853;28;20252;-70
2023/06/17 06:38:01;;;;;;;39.40;28.57;;;16.00;99.90;;;15.46;82.81;100898.34;5054761;28;20240;-70
2023/06/17 06:40:33;;;;;;;36.40;27.67;;;16.00;99.90;;;15.51;81.47;100901.38;5054480;28;20312;-70
2023/06/17 06:43:04;;;;;;;31.60;26.17;;;16.10;99.90;;;15.42;80.88;100896.19;5054289;28;20237;-70
2023/06/17 06:45:38;;;;;;;35.87;28.10;;;16.00;99.90;;;15.56;82.26;100903.47;5054666;28;20309;-70
2023/06/17 06:48:10;;;;;;;37.77;29.47;;;16.60;99.90;;;15.56;80.97;100908.88;5054288;28;20632;-70
2023/06/17 06:50:41;;;;;;;41.63;27.83;;;16.20;99.90;;;15.58;80.65;100907.66;5054535;28;20183;-70
2023/06/17 06:53:13;;;;;;;33.50;26.13;;;16.00;99.90;;;15.61;80.91;100909.16;5054120;28;20249;-70
2023/06/17 06:55:45;;;;;;;34.93;27.57;;;16.20;99.90;;;15.61;81.30;100915.41;5054144;28;20229;-70
2023/06/17 06:58:17;;;;;;;35.70;28.47;;;16.20;99.90;;;15.68;81.02;100908.19;5053955;28;20273;-70
2023/06/17 07:00:50;;;;;;;36.70;28.30;;;16.30;99.90;;;15.68;81.58;100912.78;5054777;28;20211;-70
2023/06/17 07:03:22;;;;;;;31.70;26.67;;;16.30;99.90;;;15.72;80.82;100922.97;5054606;28;20684;-70
2023/06/17 07:05:54;;;;;;;31.47;27.37;;;16.30;99.90;;;15.77;81.13;100921.59;5054258;28;20198;-70
2023/06/17 07:08:26;;;;;;;34.97;28.50;;;16.40;99.90;;;15.73;80.34;100919.28;5053818;28;20640;-70
2023/06/17 07:10:58;;;;;;;32.37;27.57;;;16.30;99.90;;;15.78;80.70;100923.28;5054126;28;20332;-70
2023/06/17 07:13:30;;;;;;;34.97;26.17;;;16.50;99.90;;;15.86;80.38;100917.72;5053751;28;20620;-70
2023/06/17 07:16:04;;;;;;;33.90;28.63;;;16.40;99.90;;;15.87;79.78;100927.53;5053990;28;20310;-70
2023/06/17 07:18:36;;;;;;;34.80;27.07;;;16.40;99.90;;;15.87;79.73;100927.53;5053734;28;20706;-70
2023/06/17 07:21:08;;;;;;;36.30;28.60;;;16.40;99.90;;;15.91;80.01;100928.81;5053599;28;20254;-70
2023/06/17 07:23:40;;;;;;;38.33;28.80;;;16.50;99.90;;;15.93;79.43;100921.34;5053776;28;20264;-70
2023/06/17 07:26:12;;;;;;;38.60;28.03;;;16.50;99.90;;;15.94;79.65;100925.72;5054355;28;20191;-70
2023/06/17 07:28:44;;;;;;;33.07;26.90;;;16.50;99.90;;;15.97;78.41;100930.75;5053731;28;20221;-70
2023/06/17 07:31:17;;;;;;;30.00;26.70;;;16.60;99.90;;;15.99;78.03;100924.13;5053726;28;20301;-70
2023/06/17 07:33:49;;;;;;;32.90;26.57;;;16.50;99.90;;;16.06;78.15;100930.44;5053655;28;20222;-70
2023/06/17 07:36:23;;;;;;;33.87;28.13;;;16.60;99.90;;;16.10;77.43;100922.78;5053706;28;20204;-70
2023/06/17 07:38:55;;;;;;;34.27;27.13;;;16.70;99.90;;;16.08;77.84;100933.81;5053592;28;20222;-63
2023/06/17 07:41:27;;;;;;;32.97;26.03;;;16.60;99.90;;;16.11;76.59;100935.28;5053094;28;20283;-65
2023/06/17 07:43:59;;;;;;;31.70;25.80;;;16.60;99.90;;;16.17;77.36;100934.50;5053442;28;20320;-73
2023/06/17 07:46:34;;;;;;;33.17;26.70;;;16.80;99.90;;;16.19;77.09;100930.59;5053374;28;20293;-73
2023/06/17 07:49:06;;;;;;;34.17;26.73;;;16.80;99.90;;;16.20;76.63;100937.66;5053425;28;20228;-73
2023/06/17 07:51:38;;;;;;;34.93;27.33;;;16.80;99.90;;;16.22;76.55;100926.66;5053392;28;20190;-73
2023/06/17 07:54:10;;;;;;;35.40;27.37;;;16.80;99.90;;;16.28;77.07;100928.59;5053014;28;20316;-73
2023/06/17 07:56:41;;;;;;;33.97;26.97;;;16.80;99.90;;;16.30;76.66;100937.34;5053304;28;20256;-73
2023/06/17 07:59:13;;;;;;;33.03;27.97;;;16.90;99.90;;;16.29;77.22;100930.28;5053016;28;20226;-73
2023/06/17 08:01:46;;;;;;;36.00;28.20;;;16.80;99.90;;;16.35;76.63;100929.50;5053244;28;20195;-73
2023/06/17 08:04:18;;;;;;;32.10;27.03;;;17.00;99.90;;;16.39;76.73;100935.34;5052992;28;20641;-73
2023/06/17 08:06:51;;;;;;;31.93;25.73;;;16.90;99.90;;;16.31;75.64;100930.91;5053234;28;20224;-73
2023/06/17 08:09:23;;;;;;;31.23;26.53;;;16.90;99.90;;;16.39;77.08;100930.78;5052138;28;20711;-73
2023/06/17 08:11:55;;;;;;;34.20;28.63;;;16.90;99.90;;;16.43;75.84;100929.38;5053108;28;20237;-73
2023/06/17 08:14:26;;;;;;;33.30;28.03;;;17.00;99.90;;;16.46;75.58;100934.41;5053135;28;20229;-73
2023/06/17 08:17:00;;;;;;;34.13;28.13;;;17.00;99.90;;;16.51;75.37;100928.38;5052828;28;20281;-73
2023/06/17 08:19:32;;;;;;;30.23;26.83;;;17.10;99.90;;;16.55;75.65;100938.66;5053024;28;20281;-73
2023/06/17 08:22:04;;;;;;;30.67;26.37;;;17.10;99.90;;;16.49;76.00;100939.41;5053025;28;20186;-73
2023/06/17 08:24:35;;;;;;;31.83;27.07;;;17.00;99.90;;;16.55;75.44;100938.66;5052743;28;20610;-73
2023/06/17 08:27:09;;;;;;;31.13;26.63;;;17.10;99.90;;;16.54;75.46;100936.13;5052768;28;20190;-73
2023/06/17 08:29:41;;;;;;;31.30;25.03;;;17.10;99.90;;;16.60;75.28;100936.22;5053072;28;20190;-73
2023/06/17 08:32:16;;;;;;;31.03;24.90;;;17.10;99.90;;;16.63;74.94;100938.53;5052992;28;20235;-73
2023/06/17 08:34:47;;;;;;;30.50;25.00;;;17.20;99.90;;;16.68;75.35;100944.16;5053006;28;20285;-73
2023/06/17 08:37:19;;;;;;;32.30;26.20;;;17.30;99.90;;;16.71;74.90;100935.66;5052941;28;20186;-73
2023/06/17 08:39:51;;;;;;;29.47;25.57;;;17.30;99.90;;;16.73;75.00;100944.44;5052616;28;20560;-73
2023/06/17 08:42:23;;;;;;;29.90;26.70;;;17.30;99.90;;;16.79;74.47;100939.25;5052786;28;20653;-73
2023/06/17 08:44:58;;;;;;;31.67;26.30;;;17.30;99.90;;;16.83;74.99;100948.66;5053782;28;20240;-73
2023/06/17 08:47:33;;;;;;;28.87;25.67;;;17.40;99.90;;;16.83;74.64;100945.97;5053384;28;20271;-73
2023/06/17 08:50:07;;;;;;;28.77;25.77;;;17.40;99.90;;;16.82;73.75;100944.28;5053175;28;20181;-73
2023/06/17 08:52:40;;;;;;;30.83;25.57;;;17.40;99.90;;;16.88;74.09;100948.94;5052775;28;20226;-73
2023/06/17 08:55:13;;;;;;;28.80;25.03;;;17.40;99.90;;;16.93;73.54;100941.03;5052835;28;20278;-73
2023/06/17 08:57:48;;;;;;;33.57;26.67;;;17.50;99.90;;;16.97;75.15;100945.03;5052758;28;20225;-73
2023/06/17 09:00:20;;;;;;;29.40;26.20;;;17.50;99.90;;;16.98;74.87;100949.41;5052672;28;20344;-73
2023/06/17 09:02:55;;;;;;;29.03;25.53;;;17.50;99.90;;;17.02;74.23;100948.00;5052688;28;20280;-73
2023/06/17 09:05:27;;;;;;;31.87;23.53;;;17.60;99.90;;;17.04;74.20;100943.22;5052716;28;20194;-73
2023/06/17 09:07:59;;;;;;;31.40;26.27;;;17.60;99.90;;;17.05;73.30;100945.75;5052339;28;20542;-73
2023/06/17 09:10:41;;;;;;;27.87;24.70;;;17.60;99.90;;;17.04;73.37;100945.91;5052647;28;20218;-73
2023/06/17 09:13:13;;;;;;;28.97;24.80;;;17.50;99.90;;;17.10;74.23;100947.81;5052556;28;20308;-73
2023/06/17 09:15:45;;;;;;;27.53;24.53;;;17.60;99.90;;;17.13;73.51;100939.31;5052369;28;20230;-73
2023/06/17 09:18:23;;;;;;;28.33;25.23;;;17.70;99.90;;;17.18;73.66;100942.28;5052669;28;20233;-73
2023/06/17 09:20:57;;;;;;;27.70;24.70;;;17.70;99.90;;;17.16;73.31;100939.75;5054084;28;20326;-73
2023/06/17 09:23:29;;;;;;;26.80;24.10;;;17.70;99.90;;;17.22;73.60;100946.25;5056523;28;20762;-73
2023/06/17 09:26:08;;;;;;;27.27;23.97;;;17.80;99.90;;;17.15;73.20;100950.78;5056033;28;20232;-73
2023/06/17 09:28:40;;;;;;;29.20;25.00;;;17.90;99.90;;;17.20;72.98;100951.00;5055989;28;20193;-73
2023/06/17 09:31:12;;;;;;;30.80;26.53;;;17.70;99.90;;;17.19;72.71;100952.88;5055948;28;20273;-73
2023/06/17 09:33:48;;;;;;;31.47;25.60;;;17.80;99.90;;;17.23;71.82;100945.22;5055839;28;20321;-73
2023/06/17 09:36:21;;;;;;;26.53;23.47;;;17.80;99.90;;;17.34;72.13;100949.22;5056081;28;20292;-73
2023/06/17 09:38:54;;;;;;;29.87;24.03;;;17.90;99.90;;;17.42;73.00;100949.06;5055809;28;20194;-73
2023/06/17 09:41:27;;;;;;;29.77;24.83;;;17.90;99.90;;;17.44;72.69;100950.53;5055490;28;20257;-73
2023/06/17 09:44:00;;;;;;;25.97;23.27;;;18.00;99.90;;;17.54;73.04;100944.75;5055666;28;20269;-73
2023/06/17 09:46:37;;;;;;;26.63;23.93;;;18.10;99.90;;;17.58;72.60;100949.63;5055710;28;20225;-73
2023/06/17 09:49:16;;;;;;;30.17;24.17;;;18.10;99.90;;;17.55;71.05;100947.28;5055686;28;20244;-73
2023/06/17 09:51:48;;;;;;;24.70;22.17;;;18.10;99.90;;;17.61;70.96;100951.06;5055221;28;20562;-73
2023/06/17 09:54:21;;;;;;;28.43;24.93;;;18.10;99.90;;;17.65;71.86;100947.78;5055560;28;20191;-73
2023/06/17 09:56:54;;;;;;;28.03;23.93;;;18.20;99.90;;;17.49;70.76;100948.09;5055210;28;20197;-73
2023/06/17 09:59:28;;;;;;;26.07;23.47;;;18.10;99.90;;;17.54;70.38;100944.75;5055508;28;20233;-73
2023/06/17 10:02:01;;;;;;;25.93;23.37;;;18.00;99.90;;;17.72;72.21;100942.38;5056038;28;20210;-73
2023/06/17 10:04:35;;;;;;;26.93;24.10;;;18.20;99.90;;;17.87;70.85;100942.25;5055664;28;20197;-73
2023/06/17 10:07:11;;;;;;;26.40;22.87;;;18.40;99.90;;;17.98;71.57;100944.38;5055303;28;20546;-73
2023/06/17 10:09:44;;;;;;;27.77;24.40;;;18.50;99.90;;;17.91;70.69;100935.38;5055011;28;20285;-73
2023/06/17 10:12:18;;;;;;;26.47;23.50;;;18.50;99.90;;;18.03;70.54;100934.59;5055202;28;20253;-73
2023/06/17 10:14:51;;;;;;;28.00;23.63;;;18.60;99.90;;;18.20;72.29;100940.47;5055163;28;20273;-73
2023/06/17 10:17:27;;;;;;;25.03;21.80;;;18.70;99.90;;;18.31;70.91;100931.72;5054852;28;20648;-73
2023/06/17 10:20:06;;;;;;;25.40;22.50;;;18.90;99.90;;;18.28;69.47;100932.16;5055184;28;20220;-73
2023/06/17 10:22:42;;;;;;;25.53;22.40;;;18.80;99.90;;;18.37;70.80;100933.63;5054930;28;20303;-73